createdAt,value
2018-01-14T00:01:31.647Z,4.43
2018-01-14T00:06:34.252Z,4.37
2018-01-14T00:11:37.874Z,4.07
2018-01-14T00:16:41.498Z,4.17
2018-01-14T00:21:44.047Z,3.90
2018-01-14T00:26:46.592Z,4.23
2018-01-14T00:31:49.468Z,4.33
2018-01-14T00:36:52.245Z,4.00
2018-01-14T00:41:55.687Z,4.03
2018-01-14T00:46:59.691Z,4.30
2018-01-14T00:52:03.455Z,4.10
2018-01-14T00:57:06.647Z,4.27
2018-01-14T01:02:09.948Z,4.20
2018-01-14T01:07:12.532Z,3.83
2018-01-14T01:12:15.181Z,3.80
2018-01-14T01:17:18.108Z,3.50
2018-01-14T01:22:20.647Z,3.80
2018-01-14T01:27:23.353Z,3.90
2018-01-14T01:32:26.920Z,3.77
2018-01-14T01:37:29.465Z,3.80
2018-01-14T01:42:33.855Z,3.80
2018-01-14T01:47:37.144Z,3.97
2018-01-14T01:52:40.043Z,3.77
2018-01-14T01:57:42.744Z,3.27
2018-01-14T02:02:45.473Z,3.43
2018-01-14T02:07:48.299Z,3.50
2018-01-14T02:12:51.265Z,3.20
2018-01-14T02:17:53.792Z,3.47
2018-01-14T02:22:57.113Z,3.40
2018-01-14T02:27:59.849Z,3.37
2018-01-14T02:33:02.350Z,3.70
2018-01-14T02:38:05.669Z,3.40
2018-01-14T02:43:09.061Z,3.57
2018-01-14T02:48:12.253Z,4.07
2018-01-14T02:53:14.806Z,3.17
2018-01-14T02:58:17.350Z,3.03
2018-01-14T03:03:19.957Z,3.57
2018-01-14T03:08:22.537Z,2.70
2018-01-14T03:13:26.059Z,3.50
2018-01-14T03:18:29.209Z,3.57
2018-01-14T03:23:32.657Z,2.43
2018-01-14T03:28:36.476Z,3.00
2018-01-14T03:33:39.314Z,3.13
2018-01-14T03:38:41.880Z,2.50
2018-01-14T03:43:45.188Z,3.20
2018-01-14T03:48:48.495Z,3.33
2018-01-14T03:53:51.296Z,3.30
2018-01-14T03:58:54.715Z,2.57
2018-01-14T04:03:58.054Z,3.40
2018-01-14T04:09:00.642Z,3.10
2018-01-14T04:14:03.632Z,2.50
2018-01-14T04:19:06.233Z,3.00
2018-01-14T04:24:09.853Z,3.03
2018-01-14T04:29:12.538Z,2.60
2018-01-14T04:34:15.087Z,2.67
2018-01-14T04:39:17.645Z,2.50
2018-01-14T04:44:20.295Z,2.60
2018-01-14T04:49:22.915Z,3.20
2018-01-14T04:54:27.054Z,2.70
2018-01-14T04:59:30.428Z,2.43
2018-01-14T05:04:33.062Z,2.50
2018-01-14T05:09:35.737Z,2.63
2018-01-14T05:14:38.453Z,2.30
2018-01-14T05:19:41.388Z,3.00
2018-01-14T05:24:44.655Z,2.10
2018-01-14T05:29:47.191Z,2.53
2018-01-14T05:34:50.311Z,3.30
2018-01-14T05:39:53.566Z,2.23
2018-01-14T05:44:56.878Z,2.37
2018-01-14T05:50:00.127Z,2.50
2018-01-14T05:55:03.676Z,2.57
2018-01-14T06:00:06.886Z,2.53
2018-01-14T06:05:09.405Z,2.87
2018-01-14T06:10:11.965Z,2.27
2018-01-14T06:15:15.106Z,2.90
2018-01-14T06:20:18.621Z,2.60
2018-01-14T06:25:21.152Z,2.40
2018-01-14T06:30:23.977Z,2.00
2018-01-14T06:35:26.547Z,2.43
2018-01-14T06:40:29.858Z,1.90
2018-01-14T06:45:32.402Z,2.40
2018-01-14T06:50:34.922Z,2.37
2018-01-14T06:55:38.275Z,1.70
2018-01-14T07:00:40.839Z,2.37
2018-01-14T07:05:43.706Z,2.70
2018-01-14T07:10:46.275Z,3.27
2018-01-14T07:15:49.042Z,2.83
2018-01-14T07:20:51.939Z,2.83
2018-01-14T07:25:55.247Z,1.90
2018-01-14T07:30:58.696Z,2.60
2018-01-14T07:36:02.385Z,2.47
2018-01-14T07:41:05.020Z,2.40
2018-01-14T07:46:08.924Z,2.17
2018-01-14T07:51:11.438Z,1.97
2018-01-14T07:56:15.296Z,2.17
2018-01-14T08:01:18.218Z,2.10
2018-01-14T08:06:22.198Z,1.77
2018-01-14T08:11:24.846Z,2.40
2018-01-14T08:16:27.670Z,2.10
2018-01-14T08:21:30.475Z,1.57
2018-01-14T08:26:33.294Z,2.20
2018-01-14T08:31:35.859Z,2.23
2018-01-14T08:36:38.888Z,1.90
2018-01-14T08:41:41.746Z,2.07
2018-01-14T08:46:45.073Z,2.53
2018-01-14T08:51:47.622Z,1.90
2018-01-14T08:56:50.487Z,1.80
2018-01-14T09:01:53.066Z,1.90
2018-01-14T09:06:56.486Z,1.40
2018-01-14T09:12:00.297Z,2.10
2018-01-14T09:17:02.894Z,1.93
2018-01-14T09:22:06.299Z,1.70
2018-01-14T09:27:09.002Z,2.20
2018-01-14T09:32:11.538Z,1.90
2018-01-14T09:37:14.328Z,1.83
2018-01-14T09:42:16.864Z,1.63
2018-01-14T09:47:19.484Z,1.90
2018-01-14T09:52:22.806Z,2.23
2018-01-14T09:57:25.904Z,1.73
2018-01-14T10:02:28.481Z,1.90
2018-01-14T10:07:31.106Z,2.40
2018-01-14T10:12:34.413Z,1.97
2018-01-14T10:17:38.922Z,1.73
2018-01-14T10:22:41.858Z,1.80
2018-01-14T10:27:44.766Z,2.10
2018-01-14T10:32:47.468Z,1.97
2018-01-14T10:37:50.678Z,1.70
2018-01-14T10:42:53.380Z,2.00
2018-01-14T10:47:56.809Z,1.90
2018-01-14T10:52:59.698Z,1.90
2018-01-14T10:58:02.317Z,1.83
2018-01-14T11:03:04.923Z,2.00
2018-01-14T11:08:07.507Z,1.80
2018-01-14T11:13:10.262Z,2.00
2018-01-14T11:18:14.300Z,1.60
2018-01-14T11:23:16.931Z,1.80
2018-01-14T11:28:19.803Z,1.80
2018-01-14T11:33:22.345Z,2.00
2018-01-14T11:38:24.910Z,1.97
2018-01-14T11:43:27.694Z,2.07
2018-01-14T11:48:30.451Z,2.50
2018-01-14T11:53:33.060Z,2.60
2018-01-14T11:58:36.549Z,2.90
2018-01-14T12:03:39.327Z,2.73
2018-01-14T12:08:42.062Z,3.47
2018-01-14T12:13:45.304Z,3.17
2018-01-14T12:18:48.715Z,3.40
2018-01-14T12:23:51.324Z,3.00
2018-01-14T12:28:53.859Z,3.50
2018-01-14T12:39:42.305Z,3.73
2018-01-14T12:44:45.046Z,4.83
2018-01-14T12:49:47.806Z,4.07
2018-01-14T12:54:51.048Z,4.57
2018-01-14T12:59:53.725Z,4.90
2018-01-14T13:04:56.392Z,4.37
2018-01-14T13:09:59.061Z,4.03
2018-01-14T13:15:01.942Z,4.50
2018-01-14T13:20:05.126Z,4.40
2018-01-14T13:25:07.704Z,3.60
2018-01-14T13:30:11.555Z,4.03
2018-01-14T13:35:14.346Z,4.80
2018-01-14T13:40:16.925Z,4.37
2018-01-14T13:45:20.260Z,3.80
2018-01-14T13:50:22.884Z,4.80
2018-01-14T13:55:25.969Z,4.13
2018-01-14T14:00:29.911Z,4.30
2018-01-14T14:05:32.481Z,4.60
2018-01-14T14:10:35.465Z,4.80
2018-01-14T14:15:38.818Z,5.40
2018-01-14T14:20:41.430Z,4.90
2018-01-14T14:25:44.014Z,4.60
2018-01-14T14:30:47.479Z,4.87
2018-01-14T14:35:50.218Z,5.37
2018-01-14T14:40:53.087Z,4.37
2018-01-14T14:45:55.784Z,4.70
2018-01-14T14:50:59.394Z,4.40
2018-01-14T14:56:02.491Z,3.10
2018-01-14T15:01:05.356Z,3.53
2018-01-14T15:06:08.255Z,3.97
2018-01-14T15:11:11.391Z,3.33
2018-01-14T15:16:14.210Z,2.50
2018-01-14T15:21:17.171Z,2.60
2018-01-14T15:26:20.316Z,12.43
2018-01-14T15:31:23.686Z,10.70
2018-01-14T15:36:26.270Z,9.73
2018-01-14T15:41:29.728Z,7.43
2018-01-14T15:46:32.365Z,6.77
2018-01-14T15:51:35.661Z,6.23
2018-01-14T15:56:38.987Z,6.80
2018-01-14T16:01:42.278Z,5.60
2018-01-14T16:06:45.121Z,6.73
2018-01-14T16:11:47.716Z,4.73
2018-01-14T16:16:50.313Z,4.73
2018-01-14T16:21:52.895Z,4.50
2018-01-14T16:26:55.536Z,4.50
2018-01-14T16:31:58.126Z,4.20
2018-01-14T16:37:01.370Z,3.90
2018-01-14T16:42:04.733Z,4.10
2018-01-14T16:47:07.287Z,3.60
2018-01-14T16:52:10.698Z,3.73
2018-01-14T16:57:14.066Z,3.13
2018-01-14T17:02:18.480Z,3.87
2018-01-14T17:07:21.126Z,3.57
2018-01-14T17:12:23.697Z,3.57
2018-01-14T17:17:26.958Z,3.50
2018-01-14T17:22:30.280Z,3.93
2018-01-14T17:27:33.150Z,3.40
2018-01-14T17:32:36.497Z,3.37
2018-01-14T17:37:39.120Z,2.77
2018-01-14T17:42:42.005Z,3.07
2018-01-14T17:47:45.488Z,3.67
2018-01-14T17:52:49.410Z,3.00
2018-01-14T17:57:53.624Z,3.63
2018-01-14T18:02:56.162Z,3.97
2018-01-14T18:07:59.511Z,3.20
2018-01-14T18:13:02.585Z,3.43
2018-01-14T18:18:05.349Z,3.80
2018-01-14T18:23:08.007Z,3.30
2018-01-14T18:28:11.175Z,3.07
2018-01-14T18:33:13.948Z,3.70
2018-01-14T18:38:17.286Z,3.30
2018-01-14T18:43:20.720Z,3.83
2018-01-14T18:48:23.711Z,4.03
2018-01-14T18:53:26.330Z,3.10
2018-01-14T18:58:29.713Z,3.00
2018-01-14T19:03:32.311Z,2.83
2018-01-14T19:08:34.980Z,3.30
2018-01-14T19:13:38.646Z,2.57
2018-01-14T19:18:41.668Z,3.80
2018-01-14T19:23:44.333Z,3.13
2018-01-14T19:28:48.575Z,2.40
2018-01-14T19:33:52.277Z,2.70
2018-01-14T19:38:55.772Z,3.00
2018-01-14T19:43:59.227Z,2.80
2018-01-14T19:49:02.590Z,2.33
2018-01-14T19:54:06.066Z,2.47
2018-01-14T19:59:10.807Z,1.70
2018-01-14T20:04:13.307Z,2.33
2018-01-14T20:09:15.834Z,2.80
2018-01-14T20:14:18.397Z,2.60
2018-01-14T20:19:20.911Z,2.87
2018-01-14T20:24:23.423Z,3.00
2018-01-14T20:29:25.977Z,3.03
2018-01-14T20:34:28.955Z,2.57
2018-01-14T20:39:31.903Z,2.83
2018-01-14T20:44:34.478Z,3.67
2018-01-14T20:49:37.492Z,2.70
2018-01-14T20:54:41.391Z,3.33
2018-01-14T20:59:43.957Z,2.80
2018-01-14T21:04:46.530Z,2.33
2018-01-14T21:09:49.251Z,2.30
2018-01-14T21:14:52.399Z,2.63
2018-01-14T21:19:55.703Z,2.37
2018-01-14T21:24:58.297Z,2.50
2018-01-14T21:30:01.033Z,2.67
2018-01-14T21:35:03.782Z,2.77
2018-01-14T21:40:06.679Z,2.30
2018-01-14T21:45:09.955Z,2.10
2018-01-14T21:50:13.452Z,2.57
2018-01-14T21:55:19.371Z,2.17
2018-01-14T22:00:23.247Z,2.30
2018-01-14T22:05:26.117Z,2.50
2018-01-14T22:10:29.465Z,2.33
2018-01-14T22:15:33.237Z,2.70
2018-01-14T22:20:36.550Z,2.77
2018-01-14T22:25:39.818Z,2.10
2018-01-14T22:30:42.478Z,3.43
2018-01-14T22:35:45.135Z,5.47
2018-01-14T22:40:49.352Z,5.03
2018-01-14T22:45:52.028Z,4.23
2018-01-14T22:50:54.597Z,4.23
2018-01-14T22:55:57.144Z,3.70
2018-01-14T23:00:59.724Z,4.10
2018-01-14T23:06:02.295Z,3.60
2018-01-14T23:11:04.883Z,3.83
2018-01-14T23:16:07.488Z,3.30
2018-01-14T23:21:10.096Z,3.50
2018-01-14T23:26:12.715Z,3.70
2018-01-14T23:31:15.396Z,3.23
2018-01-14T23:36:18.335Z,3.17
2018-01-14T23:41:21.063Z,3.10
2018-01-14T23:46:23.601Z,3.33
2018-01-14T23:51:26.104Z,2.67
2018-01-14T23:56:28.609Z,3.00
